Brisbane, Queensland, Australia, Latitude 27°S 23' 52", Longitude 152° E 55' 35", Elevation 76 m

At: Sat 7 Dec 2019 7:15:04 pm, Temperature: 26.2 °C, Humidity: 63 %, Wind speed: 9 km/h, Wind Gust: 19 km/h, Rain today: 0.0 mm, MSLP: 1011.58 hPa

New beta website from 10 years of weather station data. Please contact us if you find issues or like to provide feedback.

Recent Observations

This page presents the weather data from the last 72 hours at 30 minute intervals.

Last updated at 7:15:04 pm AEST on Sat 7 December 2019.

Last 24 hours
Date/Time(AEST) Temp. ( °C) Dew Point ( °C) Relative Humidity (%) Apparent Temp. ( °C) Wind Direction Wind Speed (kph) Wind Gust (kph) Wind Speed (kts) Wind Gust (kts) MSL Pressure (hPa) Rain since midnight (mm)
7/12 7:15 pm 26.2 18.6 63 27.4 SE 9 19 5 10 1011.58 0.0
7/12 6:45 pm 26.4 19.1 64 22.6 ESE 10 19 5 10 1011.18 0.0
7/12 6:15 pm 27.2 19.3 62 23.6 SE 10 21 5 11 1010.57 0.0
7/12 5:45 pm 28.6 19.3 57 24.2 E 11 17 6 9 1009.69 0.0
7/12 5:15 pm 30.5 18.9 50 25.3 ESE 12 19 6 10 1009.08 0.0
7/12 4:45 pm 31.6 17.5 43 27.2 ESE 10 19 5 10 1008.40 0.0
7/12 4:15 pm 32.5 17.2 40 27.9 ESE 10 21 5 11 1008.23 0.0
7/12 3:45 pm 34.0 15.5 33 28.1 E 11 15 6 8 1007.76 0.0
7/12 3:15 pm 34.7 12.4 26 27.7 ENE 11 27 6 15 1007.65 0.0
7/12 2:45 pm 34.7 12.9 27 25.1 E 15 27 8 15 1007.65 0.0
7/12 2:15 pm 35.3 12.9 26 26.4 E 14 21 8 11 1007.65 0.0
7/12 1:45 pm 36.0 10.9 22 24.4 ENE 17 27 9 15 1007.55 0.0
7/12 1:15 pm 37.2 13.2 24 27.7 ENE 15 19 8 10 1007.79 0.0
7/12 12:45 pm 37.5 8.3 17 28.7 E 12 23 6 12 1007.72 0.0
7/12 12:15 pm 38.3 12.1 21 31.2 E 11 23 6 12 1008.06 0.0
7/12 11:45 am 39.0 14.1 23 34 E 9 19 5 10 1008.30 0.0
7/12 11:15 am 38.8 9.3 17 33.1 E 8 15 4 8 1008.50 0.0
7/12 10:45 am 38.7 8.4 16 32 ESE 9 15 5 8 1008.94 0.0
7/12 10:15 am 37.6 11.5 21 33.9 E 6 14 3 8 1009.28 0.0
7/12 9:45 am 36.3 13.7 26 33.3 ESE 6 14 3 8 1009.48 0.0
7/12 9:15 am 34.8 16.2 33 34.7 E 3 12 2 6 1009.85 0.0
7/12 8:45 am 33.2 16.6 37 31.9 SSE 5 10 3 5 1010.13 0.0
7/12 8:15 am 31.4 17.3 43 29.7 ESE 6 12 3 6 1010.26 0.0
7/12 7:45 am 28.9 17.1 49 27.8 ESE 5 8 3 4 1010.30 0.0
7/12 7:15 am 25.9 16.8 57 27.5 SSE 1 4 1 2 1009.96 0.0
7/12 6:45 am 23.0 16.3 66 25.1 CALM 0 0 0 0 1009.99 0.0
7/12 6:15 am 20.5 14.6 69 22 CALM 0 2 0 1 1009.89 0.0
7/12 5:45 am 18.9 13.6 71 20 CALM 0 2 0 1 1009.41 0.0
7/12 5:15 am 18.6 13.0 70 19.5 CALM 0 2 0 1 1009.38 0.0
7/12 4:45 am 18.8 13.2 70 19.1 WSW 1 2 1 1 1009.08 0.0
7/12 4:15 am 19.2 13.8 71 20.4 CALM 0 4 0 2 1008.20 0.0
7/12 3:45 am 18.8 13.2 70 19.8 CALM 0 4 0 2 1008.20 0.0
7/12 3:15 am 18.9 12.6 67 18.3 SW 2 2 1 1 1008.16 0.0
7/12 2:45 am 19.3 12.8 66 19.5 W 1 2 1 1 1007.55 0.0
7/12 2:15 am 19.6 13.1 66 20.6 CALM 0 0 0 0 1007.21 0.0
7/12 1:45 am 19.9 13.1 65 20.9 CALM 0 0 0 0 1006.98 0.0
7/12 1:15 am 20.5 13.5 64 21.6 CALM 0 0 0 0 1007.25 0.0
7/12 12:45 am 21.2 13.6 62 22.3 CALM 0 0 0 0 1007.21 0.0
7/12 12:15 am 21.9 14.0 61 23.2 CALM 0 2 0 1 1007.35 0.0
6/12 11:45 pm 22.6 14.5 60 24 N 0 4 0 2 1007.76 0.0
6/12 11:15 pm 23.3 15.1 60 24.9 CALM 0 6 0 3 1007.69 0.0
6/12 10:45 pm 23.9 16.5 63 26 CALM 0 0 0 0 1007.65 0.0
6/12 10:15 pm 24.9 17.4 63 26.7 NNE 1 4 1 2 1007.62 0.0
6/12 9:45 pm 25.7 17.8 62 26.3 NNE 3 6 2 3 1007.59 0.0
6/12 9:15 pm 26.4 18.1 60 27.8 NE 2 4 1 2 1007.35 0.0
6/12 8:45 pm 27.3 18.9 60 29.8 NNE 1 4 1 2 1007.21 0.0
6/12 8:15 pm 28.0 19.0 58 29.1 NE 3 10 2 5 1007.08 0.0
6/12 7:45 pm 28.8 18.9 55 29.9 NE 3 12 2 6 1007.08 0.0
24 to 48 hours ago
Date/Time(AEST) Temp. °C Dew Point °C Relative Humidity % Appararent Temp. °C Wind Direction Wind Speed (kph) Wind Gust (kph) Wind Speed (kts) Wind Gust (kts) MSL Pressure (hPa) Rain since midnight (mm)
6/12 7:15 pm 29.7 17.5 48 29.5 NNE 4 12 2 6 1006.84 0.0
6/12 6:45 pm 30.9 14.1 36 26.6 N 8 10 4 5 1006.54 0.0
6/12 6:15 pm 31.6 11.9 30 25.9 N 9 21 5 11 1006.16 0.0
6/12 5:45 pm 32.3 9.2 24 23.7 NE 12 17 6 9 1005.76 0.0
6/12 5:15 pm 33.1 7.1 20 24 NE 12 19 6 10 1005.38 0.0
6/12 4:45 pm 33.4 2.3 14 19.9 NE 17 23 9 12 1005.18 0.0
6/12 4:15 pm 34.6 5.1 16 21.6 NE 17 25 9 13 1004.88 0.0
6/12 3:45 pm 35.7 -2.1 9 18.7 NE 21 31 11 17 1005.35 0.0
6/12 3:15 pm 36.6 -3.0 8 21.6 NE 18 27 10 15 1005.25 0.0
6/12 2:45 pm 37.6 -6.1 6 23.7 ENE 16 33 9 18 1005.52 0.0
6/12 2:15 pm 37.9 -14.6 3 25.4 NE 13 23 7 12 1005.89 0.0
6/12 1:45 pm 38.3 -10.8 4 25.4 NE 14 21 8 11 1006.20 0.0
6/12 1:15 pm 38.1 -11.0 4 24.5 ENE 15 29 8 16 1006.94 0.0
6/12 12:45 pm 39.1 -7.4 5 30 NNE 9 15 5 8 1007.15 0.0
6/12 12:15 pm 38.2 -3.6 7 28.7 E 10 17 5 9 1007.62 0.0
6/12 11:45 am 39.1 -5.1 6 30.2 E 9 12 5 6 1008.03 0.0
6/12 11:15 am 38.4 -7.9 5 29.9 E 8 12 4 6 1008.64 0.0
6/12 10:45 am 37.3 -11.5 4 29.2 NNE 7 15 4 8 1009.11 0.0
6/12 10:15 am 37.1 -8.8 5 29.9 SE 6 10 3 5 1009.48 0.0
6/12 9:45 am 35.9 -5.3 7 29.1 ESE 6 12 3 6 1009.75 0.0
6/12 9:15 am 35.3 -3.9 8 30.7 E 3 8 2 4 1009.92 0.0
6/12 8:45 am 33.5 1.3 13 29.6 ESE 3 6 2 3 1010.16 0.0
6/12 8:15 am 31.6 4.3 18 28.3 E 3 8 2 4 1010.09 0.0
6/12 7:45 am 27.4 6.8 27 25.2 SSE 2 4 1 2 1010.26 0.0
6/12 7:15 am 24.7 7.7 34 22.1 SW 3 4 2 2 1010.43 0.0
6/12 6:45 am 20.7 8.6 46 20.4 CALM 0 2 0 1 1010.53 0.0
6/12 6:15 am 18.1 8.0 52 15.6 W 3 4 2 2 1010.19 0.0
6/12 5:45 am 16.2 7.9 58 15.7 CALM 0 0 0 0 1010.06 0.0
6/12 5:15 am 15.3 7.4 59 14.7 CALM 0 0 0 0 1009.99 0.0
6/12 4:45 am 15.2 7.0 58 14.5 CALM 0 0 0 0 1009.65 0.0
6/12 4:15 am 15.5 7.8 60 15 CALM 0 0 0 0 1008.97 0.0
6/12 3:45 am 15.7 7.7 59 15.2 CALM 0 0 0 0 1008.97 0.0
6/12 3:15 am 15.9 7.7 58 15.4 CALM 0 0 0 0 1008.87 0.0
6/12 2:45 am 16.4 8.2 58 16 CALM 0 0 0 0 1008.87 0.0
6/12 2:15 am 16.8 8.3 57 16.4 CALM 0 2 0 1 1008.74 0.0
6/12 1:45 am 17.3 8.4 56 16.9 CALM 0 4 0 2 1009.01 0.0
6/12 1:15 am 17.7 8.8 56 17.4 CALM 0 6 0 3 1009.08 0.0
6/12 12:45 am 18.1 8.6 54 17.8 CALM 0 0 0 0 1009.18 0.0
6/12 12:15 am 18.6 8.6 52 18.3 CALM 0 2 0 1 1009.38 0.0
5/12 11:45 pm 19.3 8.9 51 19.1 CALM 0 2 0 1 1009.62 0.0
5/12 11:15 pm 20.1 8.7 48 19.8 N 0 2 0 1 1009.92 0.0
5/12 10:45 pm 20.8 9.0 47 20.6 CALM 0 2 0 1 1009.99 0.0
5/12 10:15 pm 21.4 9.0 45 21.2 CALM 0 2 0 1 1010.02 0.0
5/12 9:45 pm 22.4 8.8 42 21.4 N 1 2 1 1 1010.02 0.0
5/12 9:15 pm 23.4 8.7 39 22.4 N 1 4 1 2 1010.19 0.0
5/12 8:45 pm 24.3 9.0 38 24.1 CALM 0 4 0 2 1009.96 0.0
5/12 8:15 pm 25.2 9.8 38 25.2 CALM 0 4 0 2 1009.75 0.0
5/12 7:45 pm 26.2 8.7 33 23.8 E 3 6 2 3 1009.58 0.0
48 to 72 hours ago
Date/Time(AEST) Temp. °C Dew Point °C Relative Humidity % Appararent Temp. °C Wind Direction Wind Speed (kph) Wind Gust (kph) Wind Speed (kts) Wind Gust (kts) MSL Pressure (hPa) Rain since midnight (mm)
5/12 7:15 pm 27.3 6.6 27 22.3 ENE 6 8 3 4 1009.35 0.0
5/12 6:45 pm 28.6 3.4 20 23 NE 6 12 3 6 1009.04 0.0
5/12 6:15 pm 29.8 1.2 16 21 ENE 10 15 5 8 1008.94 0.0
5/12 5:45 pm 30.9 3.9 18 23.2 ENE 9 17 5 9 1008.40 0.0
5/12 5:15 pm 32.3 0.4 13 23.4 NE 10 19 5 10 1007.72 0.0
5/12 4:45 pm 33.4 -1.1 11 22.2 NE 13 21 7 11 1007.21 0.0
5/12 4:15 pm 34.1 -3.3 9 20.5 NNE 16 31 9 17 1007.04 0.0
5/12 3:45 pm 34.7 -1.4 10 23.4 NE 13 25 7 13 1007.04 0.0
5/12 3:15 pm 35.2 -2.4 9 19.6 NE 19 27 10 15 1007.21 0.0
5/12 2:45 pm 35.9 -5.3 7 24.9 E 12 17 6 9 1007.59 0.0
5/12 2:15 pm 39.0 -26.7 1 24 N 16 31 9 17 1007.89 0.0
5/12 1:45 pm 39.2 -26.6 1 27 NNW 12 21 6 11 1008.03 0.0
5/12 1:15 pm 39.0 -26.7 1 28.2 WNW 10 23 5 12 1008.47 0.0
5/12 12:45 pm 38.1 -27.2 1 28 WNW 9 25 5 13 1008.84 0.0
5/12 12:15 pm 37.7 -27.4 1 22 NW 17 25 9 13 1009.45 0.0
5/12 11:45 am 37.1 -27.8 1 26.3 NW 10 19 5 10 1009.75 0.0
5/12 11:15 am 36.1 -28.4 1 21.1 NNW 16 23 9 12 1010.26 0.0
5/12 10:45 am 35.7 -28.6 1 25.6 WSW 9 23 5 12 1010.67 0.0
5/12 10:15 am 35.2 -28.9 1 24.4 WSW 10 17 5 9 1011.21 0.0
5/12 9:45 am 34.3 -29.4 1 22.8 WSW 11 19 6 10 1011.48 0.0
5/12 9:15 am 33.7 -17.4 3 23.9 WSW 9 17 5 9 1011.68 0.0
5/12 8:45 am 32.8 -7.5 7 23.6 SSW 9 17 5 9 1011.75 0.0
5/12 8:15 am 31.7 -6.6 8 26.8 S 3 15 2 8 1011.82 0.0
5/12 7:45 am 26.4 8.4 32 23.9 S 3 8 2 4 1012.09 0.0
5/12 7:15 am 22.9 8.6 40 21.2 SW 2 4 1 2 1012.06 0.0
5/12 6:45 am 20.1 10.5 54 20.3 CALM 0 0 0 0 1011.95 0.0
5/12 6:15 am 17.2 9.8 62 17.2 CALM 0 0 0 0 1011.85 0.0
5/12 5:45 am 15.6 9.7 68 15.6 CALM 0 0 0 0 1011.68 0.0
5/12 5:15 am 14.8 9.1 69 14.6 CALM 0 0 0 0 1011.31 0.0
5/12 4:45 am 14.9 9.2 69 14.8 CALM 0 0 0 0 1011.11 0.0
5/12 4:15 am 15.3 9.5 68 15.2 CALM 0 0 0 0 1010.70 0.0
5/12 3:45 am 15.6 9.7 68 15.6 CALM 0 0 0 0 1010.70 0.0
5/12 3:15 am 15.8 9.9 68 15.8 CALM 0 0 0 0 1010.60 0.0
5/12 2:45 am 16.1 10.2 68 16.2 CALM 0 0 0 0 1010.43 0.0
5/12 2:15 am 16.6 10.8 69 16.9 CALM 0 0 0 0 1010.40 0.0
5/12 1:45 am 17.1 10.9 67 17.4 CALM 0 0 0 0 1010.40 0.0
5/12 1:15 am 17.7 11.5 67 18.2 CALM 0 0 0 0 1010.30 0.0
5/12 12:45 am 18.2 11.5 65 18.7 CALM 0 0 0 0 1010.74 0.0
5/12 12:15 am 18.7 11.8 64 19.2 CALM 0 0 0 0 1010.94 0.0
4/12 11:45 pm 19.4 12.2 63 20.1 CALM 0 4 0 2 1011.24 0.0
4/12 11:15 pm 19.9 12.1 61 18.5 WNW 3 4 2 2 1011.45 0.0
4/12 10:45 pm 20.7 11.8 57 21.3 CALM 0 0 0 0 1011.55 0.0
4/12 10:15 pm 21.6 12.7 57 20.3 WNW 3 6 2 3 1011.62 0.0
4/12 9:45 pm 22.1 12.4 54 22.1 N 1 4 1 2 1011.85 0.0
4/12 9:15 pm 22.9 12.6 52 23 NNE 1 4 1 2 1011.72 0.0
4/12 8:45 pm 23.6 12.5 50 21.6 NNE 4 8 2 4 1011.45 0.0
4/12 8:15 pm 23.9 11.9 47 21 N 5 10 3 5 1011.48 0.0
4/12 7:45 pm 24.4 11.4 44 21.3 NNE 5 8 3 4 1011.07 0.0